createdAt,value
2018-08-17T00:00:09.604Z,17.73
2018-08-17T00:02:36.556Z,17.70
2018-08-17T00:05:03.409Z,17.67
2018-08-17T00:07:33.532Z,17.62
2018-08-17T00:10:00.740Z,17.56
2018-08-17T00:12:28.240Z,17.54
2018-08-17T00:14:55.948Z,17.53
2018-08-17T00:17:23.579Z,17.54
2018-08-17T00:19:50.058Z,17.55
2018-08-17T00:22:16.513Z,17.55
2018-08-17T00:24:43.493Z,17.57
2018-08-17T00:27:09.970Z,17.56
2018-08-17T00:29:36.432Z,17.57
2018-08-17T00:32:03.397Z,17.63
2018-08-17T00:34:29.899Z,17.66
2018-08-17T00:36:56.583Z,17.69
2018-08-17T00:39:23.424Z,17.69
2018-08-17T00:41:50.530Z,17.71
2018-08-17T00:44:17.010Z,17.75
2018-08-17T00:46:43.522Z,17.80
2018-08-17T00:49:10.522Z,17.88
2018-08-17T00:51:37.250Z,17.92
2018-08-17T00:54:03.725Z,18.01
2018-08-17T00:56:30.210Z,18.05
2018-08-17T00:58:57.243Z,18.07
2018-08-17T01:01:23.736Z,18.07
2018-08-17T01:03:50.233Z,18.09
2018-08-17T01:06:16.693Z,18.12
2018-08-17T01:08:44.240Z,18.12
2018-08-17T01:11:10.729Z,18.13
2018-08-17T01:13:37.177Z,18.17
2018-08-17T01:16:03.633Z,18.21
2018-08-17T01:18:31.009Z,18.23
2018-08-17T01:20:57.474Z,18.25
2018-08-17T01:23:24.018Z,18.27
2018-08-17T01:25:50.576Z,18.29
2018-08-17T01:28:18.521Z,18.34
2018-08-17T01:30:45.154Z,18.39
2018-08-17T01:33:12.675Z,18.49
2018-08-17T01:35:39.192Z,18.57
2018-08-17T01:38:06.497Z,18.63
2018-08-17T01:40:32.985Z,18.68
2018-08-17T01:42:59.464Z,18.70
2018-08-17T01:45:25.926Z,18.75
2018-08-17T01:47:52.828Z,18.74
2018-08-17T01:50:19.321Z,18.75
2018-08-17T01:52:46.490Z,18.75
2018-08-17T01:55:13.738Z,18.77
2018-08-17T01:57:40.585Z,18.75
2018-08-17T02:00:07.033Z,18.75
2018-08-17T02:02:33.478Z,18.74
2018-08-17T02:04:59.935Z,18.75
2018-08-17T02:07:26.822Z,18.73
2018-08-17T02:09:53.981Z,18.74
2018-08-17T02:12:20.428Z,18.77
2018-08-17T02:14:46.949Z,18.78
2018-08-17T02:17:13.886Z,18.79
2018-08-17T02:19:40.358Z,18.80
2018-08-17T02:22:06.845Z,18.83
2018-08-17T02:24:33.390Z,18.86
2018-08-17T02:27:00.164Z,18.87
2018-08-17T02:29:27.079Z,18.89
2018-08-17T02:31:54.520Z,18.91
2018-08-17T02:34:21.032Z,18.85
2018-08-17T02:36:47.905Z,18.67
2018-08-17T02:39:14.354Z,18.51
2018-08-17T02:41:40.805Z,18.42
2018-08-17T02:44:07.255Z,18.34
2018-08-17T02:46:34.096Z,18.27
2018-08-17T02:49:00.584Z,18.23
2018-08-17T02:51:27.075Z,18.22
2018-08-17T02:53:53.534Z,18.22
2018-08-17T02:56:20.388Z,18.27
2018-08-17T02:58:46.854Z,18.30
2018-08-17T03:01:13.300Z,18.36
2018-08-17T03:03:39.787Z,18.43
2018-08-17T03:06:06.750Z,18.47
2018-08-17T03:08:33.240Z,18.48
2018-08-17T03:10:59.697Z,18.51
2018-08-17T03:13:26.672Z,18.55
2018-08-17T03:15:53.117Z,18.59
2018-08-17T03:18:19.597Z,18.59
2018-08-17T03:20:46.061Z,18.59
2018-08-17T03:23:12.984Z,18.58
2018-08-17T03:25:39.433Z,18.58
2018-08-17T03:28:05.873Z,18.43
2018-08-17T03:30:32.338Z,18.11
2018-08-17T03:32:58.836Z,17.95
2018-08-17T03:35:25.300Z,17.91
2018-08-17T03:37:52.094Z,17.89
2018-08-17T03:40:18.541Z,17.79
2018-08-17T03:42:45.021Z,17.74
2018-08-17T03:45:11.460Z,17.65
2018-08-17T03:47:38.264Z,17.53
2018-08-17T03:50:04.754Z,17.42
2018-08-17T03:52:31.245Z,17.38
2018-08-17T03:54:57.701Z,17.33
2018-08-17T03:57:24.603Z,17.30
2018-08-17T03:59:51.094Z,17.24
2018-08-17T04:02:17.622Z,17.18
2018-08-17T04:04:44.405Z,17.19
2018-08-17T04:07:10.890Z,17.18
2018-08-17T04:09:37.373Z,17.11
2018-08-17T04:12:03.830Z,17.08
2018-08-17T04:14:30.750Z,17.01
2018-08-17T04:16:57.226Z,16.93
2018-08-17T04:19:24.498Z,16.86
2018-08-17T04:21:50.946Z,16.84
2018-08-17T04:24:17.918Z,16.79
2018-08-17T04:26:44.390Z,16.74
2018-08-17T04:29:10.876Z,16.74
2018-08-17T04:31:37.864Z,16.74
2018-08-17T04:34:04.351Z,16.74
2018-08-17T04:36:30.837Z,16.75
2018-08-17T04:38:57.285Z,16.72
2018-08-17T04:41:24.161Z,16.71
2018-08-17T04:43:50.673Z,16.72
2018-08-17T04:46:17.183Z,16.73
2018-08-17T04:48:43.724Z,16.75
2018-08-17T04:51:10.533Z,16.76
2018-08-17T04:53:37.793Z,16.78
2018-08-17T04:56:04.284Z,16.84
2018-08-17T04:58:31.243Z,16.92
2018-08-17T05:00:57.739Z,17.02
2018-08-17T05:03:24.219Z,17.12
2018-08-17T05:05:51.127Z,17.23
2018-08-17T05:08:17.582Z,17.27
2018-08-17T05:10:44.860Z,17.34
2018-08-17T05:13:11.669Z,17.41
2018-08-17T05:15:38.142Z,17.36
2018-08-17T05:18:04.601Z,17.29
2018-08-17T05:20:31.386Z,17.31
2018-08-17T05:22:57.835Z,17.39
2018-08-17T05:25:24.305Z,17.44
2018-08-17T05:27:51.147Z,17.53
2018-08-17T05:30:17.613Z,17.63
2018-08-17T05:32:44.097Z,17.79
2018-08-17T05:35:11.040Z,17.91
2018-08-17T05:37:37.522Z,17.97
2018-08-17T05:40:04.001Z,18.10
2018-08-17T05:42:30.913Z,18.17
2018-08-17T05:44:57.404Z,18.26
2018-08-17T05:47:23.877Z,18.27
2018-08-17T05:49:50.831Z,18.36
2018-08-17T05:52:17.336Z,18.35
2018-08-17T05:54:43.829Z,18.30
2018-08-17T05:57:10.733Z,18.21
2018-08-17T05:59:37.186Z,18.09
2018-08-17T06:02:03.658Z,17.99
2018-08-17T06:04:30.485Z,17.88
2018-08-17T06:06:56.942Z,17.79
2018-08-17T06:09:23.472Z,17.81
2018-08-17T06:11:50.336Z,17.88
2018-08-17T06:14:16.826Z,17.95
2018-08-17T06:16:43.310Z,18.06
2018-08-17T06:19:10.280Z,18.11
2018-08-17T06:21:36.749Z,18.03
2018-08-17T06:24:03.336Z,18.04
2018-08-17T06:26:30.432Z,18.02
2018-08-17T06:28:56.895Z,18.17
2018-08-17T06:31:23.398Z,18.29
2018-08-17T06:33:52.233Z,18.33
2018-08-17T06:36:18.723Z,18.29
2018-08-17T06:38:45.213Z,18.34
2018-08-17T06:41:12.101Z,18.42
2018-08-17T06:46:11.463Z,18.41
2018-08-17T06:48:38.320Z,18.43
2018-08-17T06:51:04.836Z,18.22
2018-08-17T06:53:31.287Z,18.09
2018-08-17T06:55:58.038Z,17.96
2018-08-17T06:58:24.510Z,17.88
2018-08-17T07:00:51.485Z,17.84
2018-08-17T07:03:19.123Z,17.73
2018-08-17T07:05:46.543Z,17.68
2018-08-17T07:08:14.390Z,17.69
2018-08-17T07:10:40.849Z,17.64
2018-08-17T07:13:07.302Z,17.53
2018-08-17T07:15:34.165Z,17.51
2018-08-17T07:18:00.669Z,17.55
2018-08-17T07:20:30.262Z,17.55
2018-08-17T07:22:57.169Z,17.56
2018-08-17T07:25:23.654Z,17.55
2018-08-17T07:27:50.210Z,17.54
2018-08-17T07:30:17.036Z,17.52
2018-08-17T07:32:43.486Z,17.51
2018-08-17T07:35:10.824Z,17.40
2018-08-17T07:37:38.318Z,17.19
2018-08-17T07:40:04.773Z,17.13
2018-08-17T07:42:31.266Z,17.17
2018-08-17T07:44:58.105Z,17.18
2018-08-17T07:47:24.585Z,17.18
2018-08-17T07:49:51.070Z,17.27
2018-08-17T07:52:22.408Z,17.42
2018-08-17T07:54:50.098Z,17.58
2018-08-17T07:57:17.519Z,17.80
2018-08-17T07:59:44.507Z,18.00
2018-08-17T08:02:10.990Z,17.99
2018-08-17T08:04:38.371Z,18.05
2018-08-17T08:07:05.238Z,17.98
2018-08-17T08:09:31.697Z,18.02
2018-08-17T08:11:58.296Z,17.94
2018-08-17T08:14:25.445Z,17.90
2018-08-17T08:16:53.073Z,17.89
2018-08-17T08:19:19.529Z,17.91
2018-08-17T08:21:46.506Z,17.87
2018-08-17T08:24:12.958Z,18.00
2018-08-17T08:26:39.469Z,18.16
2018-08-17T08:29:06.426Z,18.31
2018-08-17T08:31:32.885Z,18.55
2018-08-17T08:33:59.386Z,18.84
2018-08-17T08:36:26.317Z,19.06
2018-08-17T08:38:53.065Z,19.28
2018-08-17T08:41:19.555Z,19.49
2018-08-17T08:43:46.409Z,19.75
2018-08-17T08:46:12.872Z,19.92
2018-08-17T08:48:39.349Z,20.07
2018-08-17T08:51:07.570Z,20.42
2018-08-17T08:53:34.038Z,20.47
2018-08-17T08:56:00.641Z,20.64
2018-08-17T08:58:27.461Z,20.78
2018-08-17T09:00:53.902Z,20.82
2018-08-17T09:03:20.357Z,20.94
2018-08-17T09:05:47.317Z,21.21
2018-08-17T09:10:44.653Z,21.43
2018-08-17T09:13:12.988Z,21.15
2018-08-17T09:15:39.505Z,21.51
2018-08-17T09:18:07.018Z,21.76
2018-08-17T09:20:34.834Z,22.33
2018-08-17T09:23:01.321Z,22.84
2018-08-17T09:25:27.846Z,23.01
2018-08-17T09:27:55.369Z,22.88
2018-08-17T09:30:21.815Z,22.39
2018-08-17T09:32:48.886Z,22.54
2018-08-17T09:35:15.835Z,22.83
2018-08-17T09:37:42.292Z,22.62
2018-08-17T09:40:08.809Z,22.15
2018-08-17T09:42:37.951Z,22.10
2018-08-17T09:45:04.461Z,22.12
2018-08-17T09:47:30.946Z,22.50
2018-08-17T09:49:57.788Z,22.66
2018-08-17T09:52:25.814Z,22.96
2018-08-17T09:54:52.303Z,22.82
2018-08-17T09:57:19.661Z,22.74
2018-08-17T09:59:46.608Z,23.16
2018-08-17T10:02:13.103Z,23.33
2018-08-17T10:04:41.675Z,23.63
2018-08-17T10:07:08.184Z,23.61
2018-08-17T10:09:35.194Z,23.29
2018-08-17T10:12:03.005Z,23.22
2018-08-17T10:14:30.508Z,23.35
2018-08-17T10:16:57.861Z,23.91
2018-08-17T10:19:25.729Z,23.71
2018-08-17T10:21:52.701Z,23.54
2018-08-17T10:24:20.118Z,23.49
2018-08-17T10:26:48.361Z,23.28
2018-08-17T10:29:14.857Z,23.24
2018-08-17T10:31:41.368Z,23.09
2018-08-17T10:34:08.651Z,23.37
2018-08-17T10:36:35.676Z,23.74
2018-08-17T10:39:02.562Z,23.36
2018-08-17T10:41:30.678Z,22.73
2018-08-17T10:43:57.388Z,22.17
2018-08-17T10:46:24.358Z,21.86
2018-08-17T10:48:50.958Z,21.79
2018-08-17T10:51:17.339Z,21.71
2018-08-17T10:53:44.252Z,21.62
2018-08-17T10:56:11.377Z,21.47
2018-08-17T10:58:38.410Z,21.30
2018-08-17T11:01:06.507Z,21.27
2018-08-17T11:03:33.123Z,21.36
2018-08-17T11:05:59.616Z,21.51
2018-08-17T11:08:26.384Z,21.88
2018-08-17T11:10:52.836Z,22.22
2018-08-17T11:13:19.322Z,22.84
2018-08-17T11:15:46.093Z,22.78
2018-08-17T11:18:13.721Z,22.64
2018-08-17T11:20:41.245Z,22.86
2018-08-17T11:23:08.026Z,22.50
2018-08-17T11:25:34.478Z,22.02
2018-08-17T11:28:01.613Z,21.87
2018-08-17T11:30:28.416Z,21.14
2018-08-17T11:32:54.906Z,20.75
2018-08-17T11:35:21.396Z,20.73
2018-08-17T11:37:49.525Z,20.40
2018-08-17T11:40:18.501Z,20.20
2018-08-17T11:42:46.114Z,19.86
2018-08-17T11:45:14.301Z,19.69
2018-08-17T11:47:41.560Z,19.55
2018-08-17T11:50:08.818Z,19.58
2018-08-17T11:52:36.194Z,19.50
2018-08-17T11:55:02.678Z,19.49
2018-08-17T11:57:30.264Z,19.66
2018-08-17T11:59:58.503Z,19.73
2018-08-17T12:02:27.783Z,19.70
2018-08-17T12:04:55.029Z,19.76
2018-08-17T12:07:22.591Z,19.74
2018-08-17T12:09:50.618Z,19.83
2018-08-17T12:12:18.063Z,19.96
2018-08-17T12:14:44.838Z,20.02
2018-08-17T12:17:11.297Z,20.26
2018-08-17T12:19:37.770Z,20.57
2018-08-17T12:22:07.635Z,20.42
2018-08-17T12:24:37.540Z,20.47
2018-08-17T12:27:04.887Z,20.60
2018-08-17T12:29:31.690Z,20.77
2018-08-17T12:31:58.210Z,20.86
2018-08-17T12:34:24.734Z,20.92
2018-08-17T12:36:51.490Z,21.05
2018-08-17T12:39:17.949Z,20.95
2018-08-17T12:41:44.425Z,20.96
2018-08-17T12:44:11.175Z,20.98
2018-08-17T12:46:38.576Z,21.12
2018-08-17T12:49:05.101Z,21.52
2018-08-17T12:51:32.144Z,21.92
2018-08-17T12:53:58.660Z,22.00
2018-08-17T12:56:25.149Z,21.93
2018-08-17T12:58:53.109Z,22.19
2018-08-17T13:01:20.513Z,22.22
2018-08-17T13:03:48.612Z,22.11
2018-08-17T13:06:17.226Z,21.76
2018-08-17T13:08:43.706Z,21.86
2018-08-17T13:11:10.161Z,22.01
2018-08-17T13:13:36.914Z,21.69
2018-08-17T13:16:03.376Z,21.49
2018-08-17T13:18:30.530Z,21.49
2018-08-17T13:20:57.312Z,21.11
2018-08-17T13:23:23.781Z,20.86
2018-08-17T13:25:51.074Z,20.67
2018-08-17T13:28:17.869Z,20.73
2018-08-17T13:30:44.397Z,20.87
2018-08-17T13:33:10.869Z,21.08
2018-08-17T13:35:37.639Z,21.14
2018-08-17T13:38:04.136Z,21.34
2018-08-17T13:40:30.641Z,21.45
2018-08-17T13:42:57.441Z,21.47
2018-08-17T13:45:25.278Z,20.87
2018-08-17T13:47:51.741Z,21.02
2018-08-17T13:50:18.485Z,21.34
2018-08-17T13:52:44.929Z,21.72
2018-08-17T13:55:11.464Z,21.83
2018-08-17T13:57:38.252Z,21.78
2018-08-17T14:00:04.862Z,21.43
2018-08-17T14:02:31.969Z,21.13
2018-08-17T14:04:58.437Z,20.92
2018-08-17T14:07:24.892Z,20.90
2018-08-17T14:09:51.886Z,21.06
2018-08-17T14:12:18.329Z,21.00
2018-08-17T14:14:44.791Z,20.99
2018-08-17T14:17:11.890Z,20.95
2018-08-17T14:19:38.344Z,20.69
2018-08-17T14:22:05.564Z,20.74
2018-08-17T14:24:32.346Z,21.14
2018-08-17T14:26:58.833Z,21.23
2018-08-17T14:29:26.246Z,20.95
2018-08-17T14:31:53.023Z,20.78
2018-08-17T14:34:19.583Z,20.87
2018-08-17T14:36:47.073Z,20.89
2018-08-17T14:39:14.508Z,21.14
2018-08-17T14:41:41.281Z,21.39
2018-08-17T14:44:07.738Z,21.38
2018-08-17T14:46:34.518Z,21.37
2018-08-17T14:49:01.006Z,21.16
2018-08-17T14:51:27.494Z,21.13
2018-08-17T14:53:54.265Z,21.18
2018-08-17T14:56:20.753Z,21.16
2018-08-17T14:58:47.477Z,21.09
2018-08-17T15:01:14.324Z,21.02
2018-08-17T15:03:40.758Z,20.81
2018-08-17T15:06:07.245Z,20.78
2018-08-17T15:08:35.686Z,21.05
2018-08-17T15:11:02.203Z,21.10
2018-08-17T15:13:28.789Z,20.79
2018-08-17T15:15:56.342Z,20.85
2018-08-17T15:18:23.791Z,20.88
2018-08-17T15:20:50.253Z,20.81
2018-08-17T15:23:17.938Z,21.01
2018-08-17T15:25:44.441Z,21.16
2018-08-17T15:28:10.959Z,21.16
2018-08-17T15:30:37.738Z,21.37
2018-08-17T15:33:04.926Z,21.46
2018-08-17T15:35:31.432Z,21.92
2018-08-17T15:38:00.062Z,22.61
2018-08-17T15:40:26.548Z,22.93
2018-08-17T15:42:53.269Z,23.08
2018-08-17T15:45:20.058Z,24.01
2018-08-17T15:47:46.594Z,24.93
2018-08-17T15:50:13.074Z,26.45
2018-08-17T15:52:39.821Z,25.83
2018-08-17T15:55:06.299Z,25.40
2018-08-17T15:57:32.804Z,25.78
2018-08-17T15:59:59.610Z,25.71
2018-08-17T16:02:27.933Z,26.18
2018-08-17T16:04:54.458Z,24.93
2018-08-17T16:07:22.058Z,24.36
2018-08-17T16:09:48.533Z,23.94
2018-08-17T16:12:15.901Z,23.09
2018-08-17T16:14:42.670Z,22.12
2018-08-17T16:17:09.206Z,21.76
2018-08-17T16:19:35.698Z,21.54
2018-08-17T16:22:02.475Z,21.46
2018-08-17T16:24:28.943Z,21.43
2018-08-17T16:26:55.434Z,21.57
2018-08-17T16:29:25.397Z,22.24
2018-08-17T16:31:52.645Z,24.71
2018-08-17T16:34:19.167Z,26.17
2018-08-17T16:36:46.886Z,26.73
2018-08-17T16:39:13.347Z,26.80
2018-08-17T16:41:39.826Z,26.54
2018-08-17T16:44:07.555Z,26.37
2018-08-17T16:46:36.234Z,27.04
2018-08-17T16:49:02.846Z,26.50
2018-08-17T16:51:29.775Z,25.33
2018-08-17T16:53:56.256Z,24.88
2018-08-17T16:56:25.756Z,25.08
2018-08-17T16:58:55.521Z,25.71
2018-08-17T17:01:22.892Z,25.84
2018-08-17T17:03:49.465Z,26.06
2018-08-17T17:06:16.387Z,26.00
2018-08-17T17:08:44.280Z,26.47
2018-08-17T17:11:10.733Z,26.77
2018-08-17T17:13:37.499Z,26.25
2018-08-17T17:16:03.969Z,26.21
2018-08-17T17:18:30.467Z,26.12
2018-08-17T17:20:57.317Z,25.77
2018-08-17T17:23:24.918Z,25.25
2018-08-17T17:25:51.369Z,25.85
2018-08-17T17:28:18.118Z,26.01
2018-08-17T17:30:45.594Z,26.26
2018-08-17T17:33:12.106Z,26.12
2018-08-17T17:35:39.201Z,26.43
2018-08-17T17:38:05.680Z,26.28
2018-08-17T17:40:32.516Z,25.89
2018-08-17T17:42:59.015Z,25.84
2018-08-17T17:45:25.503Z,25.64
2018-08-17T17:47:53.981Z,25.31
2018-08-17T17:50:20.452Z,25.76
2018-08-17T17:52:46.950Z,25.58
2018-08-17T17:55:13.871Z,25.67
2018-08-17T17:57:41.229Z,25.26
2018-08-17T18:00:07.758Z,24.65
2018-08-17T18:02:35.129Z,24.67
2018-08-17T18:05:02.210Z,24.20
2018-08-17T18:07:28.691Z,24.32
2018-08-17T18:09:55.628Z,24.47
2018-08-17T18:12:22.099Z,24.83
2018-08-17T18:14:49.473Z,24.62
2018-08-17T18:17:16.370Z,24.18
2018-08-17T18:19:42.866Z,23.47
2018-08-17T18:22:09.349Z,23.11
2018-08-17T18:24:36.257Z,22.82
2018-08-17T18:27:03.023Z,22.59
2018-08-17T18:29:29.512Z,22.22
2018-08-17T18:31:56.444Z,21.82
2018-08-17T18:34:22.900Z,21.38
2018-08-17T18:36:49.417Z,20.95
2018-08-17T18:39:17.231Z,20.61
2018-08-17T18:41:43.738Z,20.32
2018-08-17T18:44:10.233Z,20.07
2018-08-17T18:46:37.101Z,19.82
2018-08-17T18:49:03.575Z,19.59
2018-08-17T18:51:31.661Z,19.41
2018-08-17T18:54:02.147Z,19.26
2018-08-17T18:56:28.651Z,19.05
2018-08-17T18:58:57.263Z,18.85
2018-08-17T19:01:24.213Z,18.63
2018-08-17T19:03:50.736Z,18.45
2018-08-17T19:06:18.703Z,18.34
2018-08-17T19:08:45.572Z,18.19
2018-08-17T19:11:12.066Z,18.08
2018-08-17T19:13:38.578Z,18.02
2018-08-17T19:16:05.474Z,17.90
2018-08-17T19:18:32.027Z,17.83
2018-08-17T19:20:58.638Z,17.75
2018-08-17T19:23:32.082Z,17.66
2018-08-17T19:25:59.554Z,17.60
2018-08-17T19:28:26.024Z,17.49
2018-08-17T19:30:54.130Z,17.40
2018-08-17T19:33:20.631Z,17.30
2018-08-17T19:35:48.154Z,17.21
2018-08-17T19:38:15.170Z,17.13
2018-08-17T19:40:42.265Z,17.09
2018-08-17T19:43:11.561Z,17.05
2018-08-17T19:45:38.547Z,16.96
2018-08-17T19:48:05.033Z,16.88
2018-08-17T19:50:31.530Z,16.97
2018-08-17T19:52:58.557Z,16.94
2018-08-17T19:55:25.893Z,16.83
2018-08-17T19:57:52.452Z,16.74
2018-08-17T20:00:19.350Z,16.64
2018-08-17T20:02:45.849Z,16.53
2018-08-17T20:05:12.747Z,16.43
2018-08-17T20:07:42.826Z,16.32
2018-08-17T20:10:09.866Z,16.24
2018-08-17T20:12:36.313Z,16.16
2018-08-17T20:15:03.235Z,16.02
2018-08-17T20:17:29.741Z,15.89
2018-08-17T20:19:56.257Z,15.81
2018-08-17T20:22:23.237Z,15.71
2018-08-17T20:24:49.739Z,15.62
2018-08-17T20:27:16.260Z,15.58
2018-08-17T20:29:43.091Z,15.46
2018-08-17T20:32:10.534Z,15.39
2018-08-17T20:34:37.057Z,15.30
2018-08-17T20:37:05.237Z,15.23
2018-08-17T20:39:32.401Z,15.12
2018-08-17T20:41:59.658Z,15.03
2018-08-17T20:44:27.891Z,14.96
2018-08-17T20:46:54.375Z,14.94
2018-08-17T20:49:21.430Z,14.91
2018-08-17T20:51:48.381Z,14.85
2018-08-17T20:54:14.865Z,14.82
2018-08-17T20:56:43.307Z,14.82
2018-08-17T20:59:14.116Z,14.79
2018-08-17T21:01:41.336Z,14.80
2018-08-17T21:04:08.632Z,14.73
2018-08-17T21:06:35.405Z,14.70
2018-08-17T21:09:02.995Z,14.66
2018-08-17T21:11:30.363Z,14.63
2018-08-17T21:13:57.619Z,14.61
2018-08-17T21:16:24.899Z,14.61
2018-08-17T21:18:52.060Z,14.53
2018-08-17T21:21:18.802Z,14.48
2018-08-17T21:23:45.544Z,14.48
2018-08-17T21:26:15.619Z,14.42
2018-08-17T21:28:42.755Z,14.33
2018-08-17T21:31:10.115Z,14.24
2018-08-17T21:33:36.992Z,14.17
2018-08-17T21:36:03.509Z,14.18
2018-08-17T21:38:29.993Z,14.16
2018-08-17T21:40:57.716Z,14.09
2018-08-17T21:43:24.327Z,14.06
2018-08-17T21:45:51.494Z,14.05
2018-08-17T21:48:18.438Z,14.00
2018-08-17T21:50:47.961Z,13.91
2018-08-17T21:53:14.485Z,13.84
2018-08-17T21:55:41.436Z,13.78
2018-08-17T21:58:07.926Z,13.68
2018-08-17T22:00:35.666Z,13.68
2018-08-17T22:03:03.949Z,13.65
2018-08-17T22:05:30.574Z,13.63
2018-08-17T22:07:58.028Z,13.56
2018-08-17T22:10:25.033Z,13.47
2018-08-17T22:12:53.264Z,13.40
2018-08-17T22:15:20.562Z,13.27
2018-08-17T22:17:47.444Z,13.20
2018-08-17T22:20:13.942Z,13.13
2018-08-17T22:22:40.418Z,13.04
2018-08-17T22:25:06.915Z,12.98
2018-08-17T22:27:33.681Z,12.95
2018-08-17T22:30:00.172Z,12.96
2018-08-17T22:32:27.244Z,12.97
2018-08-17T22:34:54.052Z,13.03
2018-08-17T22:37:21.315Z,13.01
2018-08-17T22:39:48.483Z,13.03
2018-08-17T22:42:15.286Z,13.00
2018-08-17T22:44:41.830Z,13.04
2018-08-17T22:47:08.296Z,13.13
2018-08-17T22:49:35.321Z,13.12
2018-08-17T22:52:02.480Z,13.18
2018-08-17T22:54:28.950Z,13.26
2018-08-17T22:56:56.382Z,13.24
2018-08-17T22:59:23.627Z,13.16
2018-08-17T23:01:50.070Z,13.17
2018-08-17T23:04:16.842Z,13.26
2018-08-17T23:06:43.412Z,13.30
2018-08-17T23:09:09.832Z,13.33
2018-08-17T23:11:36.602Z,13.33
2018-08-17T23:14:03.052Z,13.24
2018-08-17T23:16:29.534Z,13.21
2018-08-17T23:18:56.401Z,13.19
2018-08-17T23:21:22.855Z,13.13
2018-08-17T23:23:49.420Z,12.99
2018-08-17T23:26:16.335Z,13.02
2018-08-17T23:28:42.809Z,13.08
2018-08-17T23:31:09.704Z,13.05
2018-08-17T23:33:36.190Z,13.02
2018-08-17T23:36:02.636Z,13.03
2018-08-17T23:38:29.101Z,13.08
2018-08-17T23:40:55.562Z,13.19
2018-08-17T23:43:22.432Z,13.21
2018-08-17T23:45:48.868Z,13.11
2018-08-17T23:48:15.633Z,13.07
2018-08-17T23:50:42.107Z,13.03
2018-08-17T23:53:08.897Z,12.97
2018-08-17T23:55:35.429Z,13.11
2018-08-17T23:58:01.910Z,13.23
